sensor_id;sensor_type;location;lat;lon;timestamp;temperature;humidity
40638;DHT22;26336;44.696;10.622;2023-03-14T00:02:32;12.30;99.90
40638;DHT22;26336;44.696;10.622;2023-03-14T00:05:36;12.20;99.90
40638;DHT22;26336;44.696;10.622;2023-03-14T00:08:41;12.20;99.90
40638;DHT22;26336;44.696;10.622;2023-03-14T00:11:45;12.30;99.90
40638;DHT22;26336;44.696;10.622;2023-03-14T00:14:50;12.30;99.90
40638;DHT22;26336;44.696;10.622;2023-03-14T00:17:54;12.30;99.90
40638;DHT22;26336;44.696;10.622;2023-03-14T00:20:59;12.30;99.90
40638;DHT22;26336;44.696;10.622;2023-03-14T00:24:03;12.40;99.90
40638;DHT22;26336;44.696;10.622;2023-03-14T00:27:07;12.10;99.90
40638;DHT22;26336;44.696;10.622;2023-03-14T00:30:11;12.10;99.90
40638;DHT22;26336;44.696;10.622;2023-03-14T00:33:18;12.10;99.90
40638;DHT22;26336;44.696;10.622;2023-03-14T00:36:22;12.00;99.90
40638;DHT22;26336;44.696;10.622;2023-03-14T00:39:27;12.00;99.90
40638;DHT22;26336;44.696;10.622;2023-03-14T00:42:31;11.90;99.90
40638;DHT22;26336;44.696;10.622;2023-03-14T00:45:35;11.90;99.90
40638;DHT22;26336;44.696;10.622;2023-03-14T00:48:39;11.80;99.90
40638;DHT22;26336;44.696;10.622;2023-03-14T00:51:43;11.90;99.90
40638;DHT22;26336;44.696;10.622;2023-03-14T00:54:48;11.80;99.90
40638;DHT22;26336;44.696;10.622;2023-03-14T00:57:52;11.60;99.90
40638;DHT22;26336;44.696;10.622;2023-03-14T01:00:56;11.60;99.90
40638;DHT22;26336;44.696;10.622;2023-03-14T01:04:00;11.40;99.90
40638;DHT22;26336;44.696;10.622;2023-03-14T01:07:04;11.30;99.90
40638;DHT22;26336;44.696;10.622;2023-03-14T01:10:10;11.40;99.90
40638;DHT22;26336;44.696;10.622;2023-03-14T01:13:14;11.50;99.90
40638;DHT22;26336;44.696;10.622;2023-03-14T01:16:20;11.60;99.90
40638;DHT22;26336;44.696;10.622;2023-03-14T01:19:24;11.40;99.90
40638;DHT22;26336;44.696;10.622;2023-03-14T01:22:31;11.50;99.90
40638;DHT22;26336;44.696;10.622;2023-03-14T01:25:40;11.40;99.90
40638;DHT22;26336;44.696;10.622;2023-03-14T01:28:45;11.40;99.90
40638;DHT22;26336;44.696;10.622;2023-03-14T01:31:50;11.40;99.90
40638;DHT22;26336;44.696;10.622;2023-03-14T01:34:54;11.30;99.90
40638;DHT22;26336;44.696;10.622;2023-03-14T01:37:58;11.30;99.90
40638;DHT22;26336;44.696;10.622;2023-03-14T01:41:03;11.30;99.90
40638;DHT22;26336;44.696;10.622;2023-03-14T01:44:12;11.20;99.90
40638;DHT22;26336;44.696;10.622;2023-03-14T01:47:16;11.30;99.90
40638;DHT22;26336;44.696;10.622;2023-03-14T01:50:20;11.10;99.90
40638;DHT22;26336;44.696;10.622;2023-03-14T01:53:24;11.00;99.90
40638;DHT22;26336;44.696;10.622;2023-03-14T01:56:30;11.00;99.90
40638;DHT22;26336;44.696;10.622;2023-03-14T01:59:35;10.90;99.90
40638;DHT22;26336;44.696;10.622;2023-03-14T02:02:46;11.00;99.90
40638;DHT22;26336;44.696;10.622;2023-03-14T02:05:55;11.20;99.90
40638;DHT22;26336;44.696;10.622;2023-03-14T02:09:00;11.30;99.90
40638;DHT22;26336;44.696;10.622;2023-03-14T02:12:09;11.30;99.90
40638;DHT22;26336;44.696;10.622;2023-03-14T02:15:25;11.40;99.90
40638;DHT22;26336;44.696;10.622;2023-03-14T02:18:47;11.50;99.90
40638;DHT22;26336;44.696;10.622;2023-03-14T02:22:14;11.60;99.90
40638;DHT22;26336;44.696;10.622;2023-03-14T02:29:01;11.70;99.90
40638;DHT22;26336;44.696;10.622;2023-03-14T02:32:07;11.80;99.90
40638;DHT22;26336;44.696;10.622;2023-03-14T02:35:14;11.70;99.90
40638;DHT22;26336;44.696;10.622;2023-03-14T02:38:29;11.70;99.90
40638;DHT22;26336;44.696;10.622;2023-03-14T02:41:37;11.80;99.90
40638;DHT22;26336;44.696;10.622;2023-03-14T02:44:52;11.80;99.90
40638;DHT22;26336;44.696;10.622;2023-03-14T02:48:04;11.70;99.90
40638;DHT22;26336;44.696;10.622;2023-03-14T02:51:15;11.80;99.90
40638;DHT22;26336;44.696;10.622;2023-03-14T02:54:20;11.80;99.90
40638;DHT22;26336;44.696;10.622;2023-03-14T02:57:25;11.80;99.90
40638;DHT22;26336;44.696;10.622;2023-03-14T03:00:33;11.80;99.90
40638;DHT22;26336;44.696;10.622;2023-03-14T03:03:37;11.80;99.90
40638;DHT22;26336;44.696;10.622;2023-03-14T03:06:40;11.60;99.90
40638;DHT22;26336;44.696;10.622;2023-03-14T03:09:46;11.50;99.90
40638;DHT22;26336;44.696;10.622;2023-03-14T03:12:50;11.50;99.90
40638;DHT22;26336;44.696;10.622;2023-03-14T03:15:55;11.50;99.90
40638;DHT22;26336;44.696;10.622;2023-03-14T03:19:00;11.40;99.90
40638;DHT22;26336;44.696;10.622;2023-03-14T03:22:04;11.40;99.90
40638;DHT22;26336;44.696;10.622;2023-03-14T03:25:08;11.20;99.90
40638;DHT22;26336;44.696;10.622;2023-03-14T03:28:13;11.30;99.90
40638;DHT22;26336;44.696;10.622;2023-03-14T03:31:17;11.10;99.90
40638;DHT22;26336;44.696;10.622;2023-03-14T03:34:21;11.20;99.90
40638;DHT22;26336;44.696;10.622;2023-03-14T03:37:33;11.20;99.90
40638;DHT22;26336;44.696;10.622;2023-03-14T03:40:38;11.10;99.90
40638;DHT22;26336;44.696;10.622;2023-03-14T03:43:43;11.30;99.90
40638;DHT22;26336;44.696;10.622;2023-03-14T03:46:49;11.30;99.90
40638;DHT22;26336;44.696;10.622;2023-03-14T03:49:53;11.40;99.90
40638;DHT22;26336;44.696;10.622;2023-03-14T03:52:58;11.50;99.90
40638;DHT22;26336;44.696;10.622;2023-03-14T03:56:05;11.30;99.90
40638;DHT22;26336;44.696;10.622;2023-03-14T03:59:11;11.40;99.90
40638;DHT22;26336;44.696;10.622;2023-03-14T04:02:15;11.40;99.90
40638;DHT22;26336;44.696;10.622;2023-03-14T04:05:19;11.30;99.90
40638;DHT22;26336;44.696;10.622;2023-03-14T04:08:32;11.20;99.90
40638;DHT22;26336;44.696;10.622;2023-03-14T04:11:37;11.30;99.90
40638;DHT22;26336;44.696;10.622;2023-03-14T04:14:59;11.30;99.90
40638;DHT22;26336;44.696;10.622;2023-03-14T04:18:03;11.30;99.90
40638;DHT22;26336;44.696;10.622;2023-03-14T04:21:09;11.30;99.90
40638;DHT22;26336;44.696;10.622;2023-03-14T04:24:21;11.10;99.90
40638;DHT22;26336;44.696;10.622;2023-03-14T04:27:27;11.20;99.90
40638;DHT22;26336;44.696;10.622;2023-03-14T04:30:33;11.10;99.90
40638;DHT22;26336;44.696;10.622;2023-03-14T04:33:51;10.80;99.90
40638;DHT22;26336;44.696;10.622;2023-03-14T04:37:01;10.50;99.90
40638;DHT22;26336;44.696;10.622;2023-03-14T04:40:12;10.50;99.90
40638;DHT22;26336;44.696;10.622;2023-03-14T04:43:16;10.50;99.90
40638;DHT22;26336;44.696;10.622;2023-03-14T04:46:43;10.60;99.90
40638;DHT22;26336;44.696;10.622;2023-03-14T04:49:49;10.50;99.90
40638;DHT22;26336;44.696;10.622;2023-03-14T04:52:53;10.30;99.90
40638;DHT22;26336;44.696;10.622;2023-03-14T04:55:58;10.40;99.90
40638;DHT22;26336;44.696;10.622;2023-03-14T04:59:07;10.40;99.90
40638;DHT22;26336;44.696;10.622;2023-03-14T05:02:14;10.50;99.90
40638;DHT22;26336;44.696;10.622;2023-03-14T05:05:32;10.50;99.90
40638;DHT22;26336;44.696;10.622;2023-03-14T05:08:52;10.50;99.90
40638;DHT22;26336;44.696;10.622;2023-03-14T05:12:09;10.40;99.90
40638;DHT22;26336;44.696;10.622;2023-03-14T05:15:34;10.50;99.90
40638;DHT22;26336;44.696;10.622;2023-03-14T05:18:49;10.20;99.90
40638;DHT22;26336;44.696;10.622;2023-03-14T05:22:15;10.20;99.90
40638;DHT22;26336;44.696;10.622;2023-03-14T05:25:22;10.40;99.90
40638;DHT22;26336;44.696;10.622;2023-03-14T05:28:50;10.60;99.90
40638;DHT22;26336;44.696;10.622;2023-03-14T05:32:28;10.70;99.90
40638;DHT22;26336;44.696;10.622;2023-03-14T05:36:10;10.80;99.90
40638;DHT22;26336;44.696;10.622;2023-03-14T05:39:33;10.90;99.90
40638;DHT22;26336;44.696;10.622;2023-03-14T05:43:00;10.80;99.90
40638;DHT22;26336;44.696;10.622;2023-03-14T05:46:40;10.90;99.90
40638;DHT22;26336;44.696;10.622;2023-03-14T05:50:03;11.00;99.90
40638;DHT22;26336;44.696;10.622;2023-03-14T05:53:15;11.10;99.90
40638;DHT22;26336;44.696;10.622;2023-03-14T05:56:29;10.90;99.90
40638;DHT22;26336;44.696;10.622;2023-03-14T05:59:42;11.00;99.90
40638;DHT22;26336;44.696;10.622;2023-03-14T06:03:15;11.00;99.90
40638;DHT22;26336;44.696;10.622;2023-03-14T06:06:25;11.00;99.90
40638;DHT22;26336;44.696;10.622;2023-03-14T06:09:29;11.10;99.90
40638;DHT22;26336;44.696;10.622;2023-03-14T06:12:36;11.10;99.90
40638;DHT22;26336;44.696;10.622;2023-03-14T06:15:40;11.10;99.90
40638;DHT22;26336;44.696;10.622;2023-03-14T06:18:44;11.20;99.90
40638;DHT22;26336;44.696;10.622;2023-03-14T06:21:51;11.30;99.90
40638;DHT22;26336;44.696;10.622;2023-03-14T06:24:56;11.30;99.90
40638;DHT22;26336;44.696;10.622;2023-03-14T06:28:02;11.30;99.90
40638;DHT22;26336;44.696;10.622;2023-03-14T06:31:06;11.30;99.90
40638;DHT22;26336;44.696;10.622;2023-03-14T06:34:18;11.30;99.90
40638;DHT22;26336;44.696;10.622;2023-03-14T06:37:22;11.30;99.90
40638;DHT22;26336;44.696;10.622;2023-03-14T06:40:26;11.30;99.90
40638;DHT22;26336;44.696;10.622;2023-03-14T06:43:35;11.30;99.90
40638;DHT22;26336;44.696;10.622;2023-03-14T06:46:39;11.30;99.90
40638;DHT22;26336;44.696;10.622;2023-03-14T06:49:43;11.30;99.90
40638;DHT22;26336;44.696;10.622;2023-03-14T06:52:48;11.40;99.90
40638;DHT22;26336;44.696;10.622;2023-03-14T06:55:55;11.40;99.90
40638;DHT22;26336;44.696;10.622;2023-03-14T06:59:02;11.50;99.90
40638;DHT22;26336;44.696;10.622;2023-03-14T07:02:12;11.50;99.90
40638;DHT22;26336;44.696;10.622;2023-03-14T07:05:18;11.50;99.90
40638;DHT22;26336;44.696;10.622;2023-03-14T07:08:22;11.50;99.90
40638;DHT22;26336;44.696;10.622;2023-03-14T07:11:26;11.60;99.90
40638;DHT22;26336;44.696;10.622;2023-03-14T07:14:30;11.60;99.90
40638;DHT22;26336;44.696;10.622;2023-03-14T07:17:34;11.70;99.90
40638;DHT22;26336;44.696;10.622;2023-03-14T07:20:38;11.70;99.90
40638;DHT22;26336;44.696;10.622;2023-03-14T07:23:44;11.70;99.90
40638;DHT22;26336;44.696;10.622;2023-03-14T07:26:50;11.70;99.90
40638;DHT22;26336;44.696;10.622;2023-03-14T07:29:54;11.50;99.90
40638;DHT22;26336;44.696;10.622;2023-03-14T07:32:58;11.50;99.90
40638;DHT22;26336;44.696;10.622;2023-03-14T07:36:03;11.60;99.90
40638;DHT22;26336;44.696;10.622;2023-03-14T07:39:07;11.60;99.90
40638;DHT22;26336;44.696;10.622;2023-03-14T07:42:25;11.60;99.90
40638;DHT22;26336;44.696;10.622;2023-03-14T07:45:35;11.70;99.90
40638;DHT22;26336;44.696;10.622;2023-03-14T07:48:39;11.80;99.90
40638;DHT22;26336;44.696;10.622;2023-03-14T07:51:46;11.80;99.90
40638;DHT22;26336;44.696;10.622;2023-03-14T07:54:50;11.90;99.90
40638;DHT22;26336;44.696;10.622;2023-03-14T07:57:55;11.90;99.90
40638;DHT22;26336;44.696;10.622;2023-03-14T08:00:59;11.90;99.90
40638;DHT22;26336;44.696;10.622;2023-03-14T08:04:09;11.90;99.90
40638;DHT22;26336;44.696;10.622;2023-03-14T08:07:13;12.00;99.90
40638;DHT22;26336;44.696;10.622;2023-03-14T08:10:17;12.00;99.90
40638;DHT22;26336;44.696;10.622;2023-03-14T08:13:31;12.10;99.90
40638;DHT22;26336;44.696;10.622;2023-03-14T08:16:36;12.10;99.90
40638;DHT22;26336;44.696;10.622;2023-03-14T08:19:41;12.10;99.90
40638;DHT22;26336;44.696;10.622;2023-03-14T08:22:46;12.10;99.90
40638;DHT22;26336;44.696;10.622;2023-03-14T08:25:50;12.20;99.90
40638;DHT22;26336;44.696;10.622;2023-03-14T08:28:54;12.30;99.90
40638;DHT22;26336;44.696;10.622;2023-03-14T08:31:58;12.40;99.90
40638;DHT22;26336;44.696;10.622;2023-03-14T08:35:04;12.40;99.90
40638;DHT22;26336;44.696;10.622;2023-03-14T08:38:09;12.50;99.90
40638;DHT22;26336;44.696;10.622;2023-03-14T08:41:13;12.60;99.90
40638;DHT22;26336;44.696;10.622;2023-03-14T08:44:17;12.80;99.90
40638;DHT22;26336;44.696;10.622;2023-03-14T08:47:21;12.80;99.90
40638;DHT22;26336;44.696;10.622;2023-03-14T08:50:24;12.80;99.90
40638;DHT22;26336;44.696;10.622;2023-03-14T08:53:28;12.80;99.90
40638;DHT22;26336;44.696;10.622;2023-03-14T08:56:32;12.80;99.90
40638;DHT22;26336;44.696;10.622;2023-03-14T08:59:36;12.70;99.90
40638;DHT22;26336;44.696;10.622;2023-03-14T09:02:41;12.60;99.90
40638;DHT22;26336;44.696;10.622;2023-03-14T09:05:45;12.70;99.90
40638;DHT22;26336;44.696;10.622;2023-03-14T09:08:49;12.80;99.90
40638;DHT22;26336;44.696;10.622;2023-03-14T09:11:53;13.00;99.90
40638;DHT22;26336;44.696;10.622;2023-03-14T09:14:57;13.10;99.90
40638;DHT22;26336;44.696;10.622;2023-03-14T09:18:01;13.30;99.90
40638;DHT22;26336;44.696;10.622;2023-03-14T09:21:05;13.30;99.90
40638;DHT22;26336;44.696;10.622;2023-03-14T09:24:09;13.20;99.90
40638;DHT22;26336;44.696;10.622;2023-03-14T09:27:13;13.20;99.90
40638;DHT22;26336;44.696;10.622;2023-03-14T09:30:18;13.30;99.90
40638;DHT22;26336;44.696;10.622;2023-03-14T09:33:21;13.30;99.90
40638;DHT22;26336;44.696;10.622;2023-03-14T09:36:28;13.30;99.90
40638;DHT22;26336;44.696;10.622;2023-03-14T09:39:32;13.30;99.90
40638;DHT22;26336;44.696;10.622;2023-03-14T09:42:37;13.30;99.90
40638;DHT22;26336;44.696;10.622;2023-03-14T09:45:46;13.30;99.90
40638;DHT22;26336;44.696;10.622;2023-03-14T09:48:51;13.30;99.90
40638;DHT22;26336;44.696;10.622;2023-03-14T09:51:57;13.40;99.90
40638;DHT22;26336;44.696;10.622;2023-03-14T09:55:05;13.40;99.90
40638;DHT22;26336;44.696;10.622;2023-03-14T09:58:18;13.40;99.90
40638;DHT22;26336;44.696;10.622;2023-03-14T10:01:28;13.40;99.90
40638;DHT22;26336;44.696;10.622;2023-03-14T10:04:36;13.50;99.90
40638;DHT22;26336;44.696;10.622;2023-03-14T10:07:45;13.50;99.90
40638;DHT22;26336;44.696;10.622;2023-03-14T10:10:49;13.50;99.90
40638;DHT22;26336;44.696;10.622;2023-03-14T10:14:03;13.50;99.90
40638;DHT22;26336;44.696;10.622;2023-03-14T10:17:12;13.60;99.90
40638;DHT22;26336;44.696;10.622;2023-03-14T10:20:47;13.60;99.90
40638;DHT22;26336;44.696;10.622;2023-03-14T10:23:53;13.60;99.90
40638;DHT22;26336;44.696;10.622;2023-03-14T10:27:00;13.60;99.90
40638;DHT22;26336;44.696;10.622;2023-03-14T10:30:13;13.70;99.90
40638;DHT22;26336;44.696;10.622;2023-03-14T10:33:32;13.80;99.90
40638;DHT22;26336;44.696;10.622;2023-03-14T10:36:37;13.80;99.90
40638;DHT22;26336;44.696;10.622;2023-03-14T10:39:58;13.80;99.90
40638;DHT22;26336;44.696;10.622;2023-03-14T10:43:13;13.80;99.90
40638;DHT22;26336;44.696;10.622;2023-03-14T10:46:20;13.90;99.90
40638;DHT22;26336;44.696;10.622;2023-03-14T10:49:43;13.90;99.90
40638;DHT22;26336;44.696;10.622;2023-03-14T10:52:48;13.90;99.90
40638;DHT22;26336;44.696;10.622;2023-03-14T10:55:52;13.90;99.90
40638;DHT22;26336;44.696;10.622;2023-03-14T10:58:57;13.90;99.90
40638;DHT22;26336;44.696;10.622;2023-03-14T11:11:49;14.30;99.90
40638;DHT22;26336;44.696;10.622;2023-03-14T11:15:02;14.40;99.90
40638;DHT22;26336;44.696;10.622;2023-03-14T11:28:37;14.50;99.90
40638;DHT22;26336;44.696;10.622;2023-03-14T11:31:47;14.40;99.90
40638;DHT22;26336;44.696;10.622;2023-03-14T11:35:22;14.40;99.90
40638;DHT22;26336;44.696;10.622;2023-03-14T11:41:42;14.40;99.90
40638;DHT22;26336;44.696;10.622;2023-03-14T11:44:49;14.50;99.90
40638;DHT22;26336;44.696;10.622;2023-03-14T11:54:52;14.90;99.90
40638;DHT22;26336;44.696;10.622;2023-03-14T11:58:09;14.90;99.90
40638;DHT22;26336;44.696;10.622;2023-03-14T12:01:14;14.90;99.90
40638;DHT22;26336;44.696;10.622;2023-03-14T12:04:42;14.90;99.90
40638;DHT22;26336;44.696;10.622;2023-03-14T12:14:32;14.80;99.90
40638;DHT22;26336;44.696;10.622;2023-03-14T12:17:41;14.80;99.90
40638;DHT22;26336;44.696;10.622;2023-03-14T12:20:58;14.80;99.90
40638;DHT22;26336;44.696;10.622;2023-03-14T12:24:03;14.80;99.90
40638;DHT22;26336;44.696;10.622;2023-03-14T12:27:13;14.90;99.90
40638;DHT22;26336;44.696;10.622;2023-03-14T12:30:40;15.00;99.90
40638;DHT22;26336;44.696;10.622;2023-03-14T12:33:45;15.10;99.90
40638;DHT22;26336;44.696;10.622;2023-03-14T12:40:20;15.20;99.90
40638;DHT22;26336;44.696;10.622;2023-03-14T12:43:31;15.20;99.90
40638;DHT22;26336;44.696;10.622;2023-03-14T12:46:38;15.20;99.90
40638;DHT22;26336;44.696;10.622;2023-03-14T12:49:42;15.20;99.90
40638;DHT22;26336;44.696;10.622;2023-03-14T12:59:56;15.40;99.90
40638;DHT22;26336;44.696;10.622;2023-03-14T13:13:24;15.30;99.90
40638;DHT22;26336;44.696;10.622;2023-03-14T13:16:31;15.30;99.90
40638;DHT22;26336;44.696;10.622;2023-03-14T13:19:40;15.30;99.90
40638;DHT22;26336;44.696;10.622;2023-03-14T13:22:49;15.30;99.90
40638;DHT22;26336;44.696;10.622;2023-03-14T13:25:53;15.30;99.90
40638;DHT22;26336;44.696;10.622;2023-03-14T13:28:57;15.40;99.90
40638;DHT22;26336;44.696;10.622;2023-03-14T13:32:17;15.30;99.90
40638;DHT22;26336;44.696;10.622;2023-03-14T13:35:26;15.40;99.90
40638;DHT22;26336;44.696;10.622;2023-03-14T13:38:33;15.40;99.90
40638;DHT22;26336;44.696;10.622;2023-03-14T13:41:39;15.30;99.90
40638;DHT22;26336;44.696;10.622;2023-03-14T13:44:44;15.20;99.90
40638;DHT22;26336;44.696;10.622;2023-03-14T13:47:52;15.10;99.90
40638;DHT22;26336;44.696;10.622;2023-03-14T13:51:00;15.10;99.90
40638;DHT22;26336;44.696;10.622;2023-03-14T13:54:14;15.20;99.90
40638;DHT22;26336;44.696;10.622;2023-03-14T13:57:18;15.30;99.90
40638;DHT22;26336;44.696;10.622;2023-03-14T14:00:27;15.30;99.90
40638;DHT22;26336;44.696;10.622;2023-03-14T14:03:34;15.50;99.90
40638;DHT22;26336;44.696;10.622;2023-03-14T14:06:49;15.50;99.90
40638;DHT22;26336;44.696;10.622;2023-03-14T14:09:55;15.60;99.90
40638;DHT22;26336;44.696;10.622;2023-03-14T14:13:03;15.60;99.90
40638;DHT22;26336;44.696;10.622;2023-03-14T14:16:09;15.60;99.90
40638;DHT22;26336;44.696;10.622;2023-03-14T14:19:34;15.70;99.90
40638;DHT22;26336;44.696;10.622;2023-03-14T14:22:39;15.60;99.90
40638;DHT22;26336;44.696;10.622;2023-03-14T14:25:43;15.60;99.90
40638;DHT22;26336;44.696;10.622;2023-03-14T14:29:04;15.70;99.90
40638;DHT22;26336;44.696;10.622;2023-03-14T14:32:13;15.70;99.90
40638;DHT22;26336;44.696;10.622;2023-03-14T14:35:26;15.80;99.90
40638;DHT22;26336;44.696;10.622;2023-03-14T14:38:30;15.80;99.90
40638;DHT22;26336;44.696;10.622;2023-03-14T14:41:35;15.80;99.90
40638;DHT22;26336;44.696;10.622;2023-03-14T14:44:43;15.80;99.90
40638;DHT22;26336;44.696;10.622;2023-03-14T14:51:07;15.80;99.90
40638;DHT22;26336;44.696;10.622;2023-03-14T14:54:14;15.80;99.90
40638;DHT22;26336;44.696;10.622;2023-03-14T14:57:31;15.80;99.90
40638;DHT22;26336;44.696;10.622;2023-03-14T15:00:39;15.80;99.90
40638;DHT22;26336;44.696;10.622;2023-03-14T15:03:47;15.80;99.90
40638;DHT22;26336;44.696;10.622;2023-03-14T15:06:52;15.80;99.90
40638;DHT22;26336;44.696;10.622;2023-03-14T15:09:59;15.70;99.90
40638;DHT22;26336;44.696;10.622;2023-03-14T15:13:03;15.80;99.90
40638;DHT22;26336;44.696;10.622;2023-03-14T15:16:15;15.80;99.90
40638;DHT22;26336;44.696;10.622;2023-03-14T15:19:23;15.80;99.90
40638;DHT22;26336;44.696;10.622;2023-03-14T15:22:27;15.80;99.90
40638;DHT22;26336;44.696;10.622;2023-03-14T15:25:32;15.70;99.90
40638;DHT22;26336;44.696;10.622;2023-03-14T15:28:36;15.70;99.90
40638;DHT22;26336;44.696;10.622;2023-03-14T15:31:40;15.80;99.90
40638;DHT22;26336;44.696;10.622;2023-03-14T15:34:44;15.80;99.90
40638;DHT22;26336;44.696;10.622;2023-03-14T15:37:48;15.80;99.90
40638;DHT22;26336;44.696;10.622;2023-03-14T15:40:52;15.80;99.90
40638;DHT22;26336;44.696;10.622;2023-03-14T15:43:56;15.80;99.90
40638;DHT22;26336;44.696;10.622;2023-03-14T15:47:00;15.90;99.90
40638;DHT22;26336;44.696;10.622;2023-03-14T15:50:04;15.90;99.90
40638;DHT22;26336;44.696;10.622;2023-03-14T15:53:09;15.90;99.90
40638;DHT22;26336;44.696;10.622;2023-03-14T15:56:17;16.00;99.90
40638;DHT22;26336;44.696;10.622;2023-03-14T15:59:23;16.00;99.90
40638;DHT22;26336;44.696;10.622;2023-03-14T16:02:31;16.00;99.90
40638;DHT22;26336;44.696;10.622;2023-03-14T16:05:35;16.00;99.90
40638;DHT22;26336;44.696;10.622;2023-03-14T16:08:39;15.90;99.90
40638;DHT22;26336;44.696;10.622;2023-03-14T16:11:44;15.90;99.90
40638;DHT22;26336;44.696;10.622;2023-03-14T16:14:49;15.90;99.90
40638;DHT22;26336;44.696;10.622;2023-03-14T16:17:54;15.90;99.90
40638;DHT22;26336;44.696;10.622;2023-03-14T16:21:02;15.80;99.90
40638;DHT22;26336;44.696;10.622;2023-03-14T16:24:08;15.80;99.90
40638;DHT22;26336;44.696;10.622;2023-03-14T16:27:12;15.70;99.90
40638;DHT22;26336;44.696;10.622;2023-03-14T16:30:16;15.70;99.90
40638;DHT22;26336;44.696;10.622;2023-03-14T16:33:22;15.60;99.90
40638;DHT22;26336;44.696;10.622;2023-03-14T16:36:26;15.60;99.90
40638;DHT22;26336;44.696;10.622;2023-03-14T16:39:31;15.60;99.90
40638;DHT22;26336;44.696;10.622;2023-03-14T16:42:38;15.50;99.90
40638;DHT22;26336;44.696;10.622;2023-03-14T16:45:42;15.50;99.90
40638;DHT22;26336;44.696;10.622;2023-03-14T16:48:46;15.50;99.90
40638;DHT22;26336;44.696;10.622;2023-03-14T16:51:50;15.50;99.90
40638;DHT22;26336;44.696;10.622;2023-03-14T16:54:57;15.50;99.90
40638;DHT22;26336;44.696;10.622;2023-03-14T16:58:00;15.50;99.90
40638;DHT22;26336;44.696;10.622;2023-03-14T17:01:07;15.40;99.90
40638;DHT22;26336;44.696;10.622;2023-03-14T17:04:14;15.40;99.90
40638;DHT22;26336;44.696;10.622;2023-03-14T17:07:18;15.30;99.90
40638;DHT22;26336;44.696;10.622;2023-03-14T17:10:23;15.30;99.90
40638;DHT22;26336;44.696;10.622;2023-03-14T17:13:27;15.30;99.90
40638;DHT22;26336;44.696;10.622;2023-03-14T17:16:31;15.30;99.90
40638;DHT22;26336;44.696;10.622;2023-03-14T17:19:35;15.20;99.90
40638;DHT22;26336;44.696;10.622;2023-03-14T17:22:39;15.20;99.90
40638;DHT22;26336;44.696;10.622;2023-03-14T17:25:46;15.20;99.90
40638;DHT22;26336;44.696;10.622;2023-03-14T17:28:50;15.20;99.90
40638;DHT22;26336;44.696;10.622;2023-03-14T17:31:54;15.20;99.90
40638;DHT22;26336;44.696;10.622;2023-03-14T17:34:58;15.10;99.90
40638;DHT22;26336;44.696;10.622;2023-03-14T17:38:02;15.20;99.90
40638;DHT22;26336;44.696;10.622;2023-03-14T17:41:11;15.10;99.90
40638;DHT22;26336;44.696;10.622;2023-03-14T17:44:15;15.10;99.90
40638;DHT22;26336;44.696;10.622;2023-03-14T17:47:19;15.10;99.90
40638;DHT22;26336;44.696;10.622;2023-03-14T17:50:23;15.10;99.90
40638;DHT22;26336;44.696;10.622;2023-03-14T17:53:27;15.10;99.90
40638;DHT22;26336;44.696;10.622;2023-03-14T17:56:32;15.00;99.90
40638;DHT22;26336;44.696;10.622;2023-03-14T17:59:37;15.00;99.90
40638;DHT22;26336;44.696;10.622;2023-03-14T18:02:52;15.00;99.90
40638;DHT22;26336;44.696;10.622;2023-03-14T18:06:07;15.00;99.90
40638;DHT22;26336;44.696;10.622;2023-03-14T18:09:12;14.90;99.90
40638;DHT22;26336;44.696;10.622;2023-03-14T18:12:21;14.90;99.90
40638;DHT22;26336;44.696;10.622;2023-03-14T18:15:27;14.90;99.90
40638;DHT22;26336;44.696;10.622;2023-03-14T18:18:31;14.80;99.90
40638;DHT22;26336;44.696;10.622;2023-03-14T18:21:35;14.80;99.90
40638;DHT22;26336;44.696;10.622;2023-03-14T18:24:42;14.80;99.90
40638;DHT22;26336;44.696;10.622;2023-03-14T18:27:46;14.80;99.90
40638;DHT22;26336;44.696;10.622;2023-03-14T18:30:51;14.80;99.90
40638;DHT22;26336;44.696;10.622;2023-03-14T18:33:55;14.80;99.90
40638;DHT22;26336;44.696;10.622;2023-03-14T18:37:00;14.80;99.90
40638;DHT22;26336;44.696;10.622;2023-03-14T18:40:05;14.80;99.90
40638;DHT22;26336;44.696;10.622;2023-03-14T18:43:11;14.80;99.90
40638;DHT22;26336;44.696;10.622;2023-03-14T18:46:15;14.80;99.90
40638;DHT22;26336;44.696;10.622;2023-03-14T18:49:23;14.80;99.90
40638;DHT22;26336;44.696;10.622;2023-03-14T18:52:27;14.80;99.90
40638;DHT22;26336;44.696;10.622;2023-03-14T18:55:31;14.80;99.90
40638;DHT22;26336;44.696;10.622;2023-03-14T18:58:35;14.80;99.90
40638;DHT22;26336;44.696;10.622;2023-03-14T19:01:39;14.80;99.90
40638;DHT22;26336;44.696;10.622;2023-03-14T19:04:44;14.80;99.90
40638;DHT22;26336;44.696;10.622;2023-03-14T19:07:50;14.80;99.90
40638;DHT22;26336;44.696;10.622;2023-03-14T19:10:55;14.70;99.90
40638;DHT22;26336;44.696;10.622;2023-03-14T19:14:03;14.80;99.90
40638;DHT22;26336;44.696;10.622;2023-03-14T19:17:07;14.70;99.90
40638;DHT22;26336;44.696;10.622;2023-03-14T19:20:11;14.70;99.90
40638;DHT22;26336;44.696;10.622;2023-03-14T19:23:15;14.70;99.90
40638;DHT22;26336;44.696;10.622;2023-03-14T19:26:19;14.70;99.90
40638;DHT22;26336;44.696;10.622;2023-03-14T19:29:24;14.60;99.90
40638;DHT22;26336;44.696;10.622;2023-03-14T19:32:27;14.60;99.90
40638;DHT22;26336;44.696;10.622;2023-03-14T19:35:31;14.60;99.90
40638;DHT22;26336;44.696;10.622;2023-03-14T19:38:35;14.60;99.90
40638;DHT22;26336;44.696;10.622;2023-03-14T19:41:39;14.60;99.90
40638;DHT22;26336;44.696;10.622;2023-03-14T19:44:46;14.60;99.90
40638;DHT22;26336;44.696;10.622;2023-03-14T19:47:50;14.60;99.90
40638;DHT22;26336;44.696;10.622;2023-03-14T19:50:53;14.50;99.90
40638;DHT22;26336;44.696;10.622;2023-03-14T19:53:57;14.50;99.90
40638;DHT22;26336;44.696;10.622;2023-03-14T19:57:05;14.50;99.90
40638;DHT22;26336;44.696;10.622;2023-03-14T20:00:10;14.50;99.90
40638;DHT22;26336;44.696;10.622;2023-03-14T20:03:19;14.40;99.90
40638;DHT22;26336;44.696;10.622;2023-03-14T20:06:33;14.40;99.90
40638;DHT22;26336;44.696;10.622;2023-03-14T20:09:41;14.40;99.90
40638;DHT22;26336;44.696;10.622;2023-03-14T20:12:45;14.40;99.90
40638;DHT22;26336;44.696;10.622;2023-03-14T20:15:49;14.40;99.90
40638;DHT22;26336;44.696;10.622;2023-03-14T20:18:55;14.30;99.90
40638;DHT22;26336;44.696;10.622;2023-03-14T20:21:59;14.30;99.90
40638;DHT22;26336;44.696;10.622;2023-03-14T20:25:04;14.30;99.90
40638;DHT22;26336;44.696;10.622;2023-03-14T20:28:09;14.30;99.90
40638;DHT22;26336;44.696;10.622;2023-03-14T20:31:14;14.30;99.90